Bassett, Nebraska
Current Conditions -  °F | °C
As of 1:15 AM on Wednesday 22 Oct 2014 (Local Time) from KANW Reporting Station
Clear Clear  
Wind Chill: 59°   Ceiling: Unl
Heat Index: 59°   Visibility: 10mi
Dew Point: 53°   Wind: 17mph
Humidity: 79%   Direction: 170°S
Pressure: 29.88"   Gusts: NA
Location:  42.59°N, 99.54°W
Report Text: KANW 220615Z AUTO 17015KT 10SM CLR 15/12 A2988 RMK AO2 T01510115
Loading
Personal Weather Stations






























Interactive Weather Map
Tropical Storm Tracking
New forecast layout! Learn more

10-Day Weather Forecast

Advertisements
Track Severe Weather on mobile